Time;durP1;ratioP1;P1;durP2;ratioP2;P2;SDS_P1;SDS_P2;PMS_P1;PMS_P2;Temp;Humidity;BMP_temperature;BMP_pressure;BME280_temperature;BME280_humidity;BME280_pressure;Samples;Min_cycle;Max_cycle;Signal;HPM_P1;HPM_P2
2021/05/15 00:00:01;;;;;;;3.58;1.87;;;;;;;10.49;84.05;95850.77;1746256;82;21307;-81
2021/05/15 00:02:27;;;;;;;2.35;1.72;;;;;;;10.50;84.07;95846.67;1725279;82;21305;-81
2021/05/15 00:04:52;;;;;;;5.00;2.30;;;;;;;10.51;84.13;95853.97;1746264;80;20946;-81
2021/05/15 00:07:19;;;;;;;4.72;2.10;;;;;;;10.46;84.03;95853.27;1725563;82;21022;-81
2021/05/15 00:09:45;;;;;;;6.80;2.08;;;;;;;10.43;84.21;95854.95;1725148;82;21255;-81
2021/05/15 00:12:10;;;;;;;4.80;1.95;;;;;;;10.41;84.33;95855.65;1726012;80;20934;-81
2021/05/15 00:14:36;;;;;;;3.15;1.62;;;;;;;10.42;84.29;95858.55;1732611;80;20919;-81
2021/05/15 00:17:02;;;;;;;6.12;1.80;;;;;;;10.45;84.27;95853.45;1733380;80;21002;-81
2021/05/15 00:19:28;;;;;;;3.62;1.90;;;;;;;10.45;84.17;95849.56;1739102;80;21073;-81
2021/05/15 00:21:54;;;;;;;4.90;2.27;;;;;;;10.41;84.01;95847.02;1725401;82;21001;-81
2021/05/15 00:24:19;;;;;;;4.03;2.30;;;;;;;10.37;84.16;95845.81;1725837;80;21279;-81
2021/05/15 00:26:45;;;;;;;3.45;1.85;;;;;;;10.32;84.17;95840.41;1725069;80;20966;-81
2021/05/15 00:29:11;;;;;;;2.08;1.75;;;;;;;10.27;84.11;95838.89;1724946;80;20994;-81
2021/05/15 00:31:38;;;;;;;11.15;1.85;;;;;;;10.21;84.08;95838.65;1739860;82;20933;-81
2021/05/15 00:34:04;;;;;;;4.35;1.57;;;;;;;10.18;84.02;95843.40;1753445;80;20935;-81
2021/05/15 00:36:31;;;;;;;2.22;1.82;;;;;;;10.16;83.91;95841.50;1707471;82;20978;-81
2021/05/15 00:38:56;;;;;;;5.30;2.05;;;;;;;10.12;83.88;95838.48;1738097;80;21287;-81
2021/05/15 00:41:22;;;;;;;3.58;1.90;;;;;;;10.08;83.77;95837.74;1744493;80;21066;-81
2021/05/15 00:44:13;;;;;;;3.90;1.70;;;;;;;10.01;83.78;95846.80;1725124;80;21041;-81
2021/05/15 00:46:28;;;;;;;8.08;1.42;;;;;;;9.97;83.71;95842.20;1721985;82;20935;-82
2021/05/15 00:48:54;;;;;;;4.30;2.22;;;;;;;9.91;83.58;95845.03;1745138;82;21070;-82
2021/05/15 00:51:20;;;;;;;2.17;1.60;;;;;;;9.88;83.46;95844.12;1726294;80;21323;-82
2021/05/15 00:53:46;;;;;;;5.05;2.10;;;;;;;9.82;83.38;95844.89;1725811;80;21045;-81
2021/05/15 00:56:13;;;;;;;11.22;2.42;;;;;;;9.75;83.37;95847.42;1725429;82;21033;-82
2021/05/15 00:58:40;;;;;;;5.45;2.33;;;;;;;9.69;83.45;95848.19;1714414;81;21310;-82
2021/05/15 01:01:06;;;;;;;6.78;1.90;;;;;;;9.62;83.50;95836.98;1701800;81;21006;-82
2021/05/15 01:03:31;;;;;;;3.60;1.85;;;;;;;9.57;83.58;95844.00;1712246;82;20998;-82
2021/05/15 01:05:57;;;;;;;6.80;1.98;;;;;;;9.54;83.58;95844.88;1732706;82;21752;-81
2021/05/15 01:08:24;;;;;;;4.17;1.40;;;;;;;9.49;83.53;95841.56;1719559;81;20999;-81
2021/05/15 01:10:50;;;;;;;3.52;1.75;;;;;;;9.46;83.49;95848.43;1699788;81;21327;-82
2021/05/15 01:13:15;;;;;;;4.55;1.80;;;;;;;9.45;83.53;95855.10;1710459;81;21050;-81
2021/05/15 01:15:41;;;;;;;2.85;2.00;;;;;;;9.41;83.53;95857.25;1663829;84;21034;-81
2021/05/15 01:18:07;;;;;;;3.75;1.80;;;;;;;9.36;83.58;95862.20;1713411;81;21323;-82
2021/05/15 01:20:33;;;;;;;5.47;1.60;;;;;;;9.29;83.67;95862.65;1711548;81;20958;-81
2021/05/15 01:22:59;;;;;;;4.12;1.70;;;;;;;9.23;83.75;95864.66;1713366;81;20971;-81
2021/05/15 01:25:25;;;;;;;3.83;1.70;;;;;;;9.21;83.90;95860.16;1714228;81;21306;-81
2021/05/15 01:27:50;;;;;;;4.65;1.90;;;;;;;9.21;83.83;95870.03;1711487;82;21061;-81
2021/05/15 01:30:17;;;;;;;3.83;1.70;;;;;;;9.21;83.85;95864.05;1711016;82;21259;-81
2021/05/15 01:32:44;;;;;;;2.77;1.80;;;;;;;9.22;83.90;95857.88;1737155;81;20971;-81
2021/05/15 01:35:11;;;;;;;4.92;2.10;;;;;;;9.19;83.97;95860.84;1737904;81;20955;-81
2021/05/15 01:37:37;;;;;;;3.98;2.02;;;;;;;9.15;84.11;95857.83;1702473;82;21324;-81
2021/05/15 01:40:06;;;;;;;3.77;2.05;;;;;;;9.13;84.18;95849.94;1713065;81;21006;-82
2021/05/15 01:42:32;;;;;;;4.97;1.80;;;;;;;9.14;84.22;95856.72;1724817;82;21014;-82
2021/05/15 01:45:01;;;;;;;4.03;1.82;;;;;;;9.14;84.20;95860.11;1719353;81;21335;-82
2021/05/15 01:47:27;;;;;;;4.10;2.10;;;;;;;9.16;84.16;95856.84;1711514;81;21055;-81
2021/05/15 01:49:53;;;;;;;2.58;1.77;;;;;;;9.17;84.13;95858.44;1711501;82;21067;-82
2021/05/15 01:52:19;;;;;;;3.80;2.40;;;;;;;9.16;84.24;95854.74;1732871;82;21228;-82
2021/05/15 01:54:45;;;;;;;2.40;2.20;;;;;;;9.14;84.22;95860.61;1712281;82;21142;-82
2021/05/15 01:57:11;;;;;;;6.15;2.42;;;;;;;9.12;84.34;95859.50;1715168;82;21271;-82
2021/05/15 01:59:37;;;;;;;6.62;2.30;;;;;;;9.14;84.31;95864.50;1735983;82;21010;-82
2021/05/15 02:02:03;;;;;;;3.92;2.47;;;;;;;9.17;84.25;95864.13;1735862;80;21029;-82
2021/05/15 02:04:29;;;;;;;5.33;2.70;;;;;;;9.19;84.16;95851.77;1748611;80;20977;-82
2021/05/15 02:06:58;;;;;;;4.15;2.60;;;;;;;9.19;84.00;95849.98;1745428;80;21081;-82
2021/05/15 02:09:23;;;;;;;5.15;2.30;;;;;;;9.20;84.05;95847.70;1742963;82;20931;-82
2021/05/15 02:11:49;;;;;;;4.65;2.25;;;;;;;9.19;84.13;95844.80;1742587;80;20998;-82
2021/05/15 02:14:15;;;;;;;4.40;2.35;;;;;;;9.17;84.14;95845.98;1743739;82;21267;-81
2021/05/15 02:16:41;;;;;;;3.70;2.02;;;;;;;9.16;84.04;95841.28;1730960;80;20939;-82
2021/05/15 02:19:06;;;;;;;3.87;2.40;;;;;;;9.15;83.98;95844.07;1742899;82;20947;-82
2021/05/15 02:21:32;;;;;;;3.65;2.22;;;;;;;9.14;84.00;95845.86;1742072;80;21279;-82
2021/05/15 02:23:58;;;;;;;5.72;2.22;;;;;;;9.12;83.95;95847.03;1730919;80;21011;-82
2021/05/15 02:26:24;;;;;;;3.55;2.30;;;;;;;9.09;83.93;95843.49;1725492;80;20969;-81
2021/05/15 02:28:50;;;;;;;3.55;2.42;;;;;;;9.03;84.02;95842.45;1743955;80;21347;-82
2021/05/15 02:31:15;;;;;;;4.87;2.10;;;;;;;9.00;84.09;95840.23;1747117;82;20950;-81
2021/05/15 02:33:41;;;;;;;4.62;2.25;;;;;;;9.00;84.13;95842.83;1725653;80;20982;-82
2021/05/15 02:36:07;;;;;;;5.95;2.20;;;;;;;9.00;84.18;95844.12;1747808;82;21239;-82
2021/05/15 02:38:33;;;;;;;4.62;2.60;;;;;;;9.06;84.16;95848.56;1726563;80;21331;-81
2021/05/15 02:40:59;;;;;;;5.95;2.98;;;;;;;9.08;84.06;95851.77;1739925;82;21018;-81
2021/05/15 02:43:25;;;;;;;3.90;3.17;;;;;;;9.10;84.05;95852.88;1750165;81;21120;-81
2021/05/15 02:45:51;;;;;;;5.33;2.60;;;;;;;9.13;84.08;95847.34;1738853;82;21022;-82
2021/05/15 02:48:16;;;;;;;5.60;3.30;;;;;;;9.17;84.10;95851.16;1732442;80;21295;-82
2021/05/15 02:50:48;;;;;;;4.58;3.52;;;;;;;9.19;83.84;95846.09;1748928;82;20921;-82
2021/05/15 02:53:14;;;;;;;4.65;4.12;;;;;;;9.25;83.63;95853.12;1739183;80;21280;-82
2021/05/15 02:55:40;;;;;;;6.97;3.17;;;;;;;9.33;83.51;95845.72;1734710;82;20990;-82
2021/05/15 02:58:07;;;;;;;4.05;3.52;;;;;;;9.38;83.51;95848.55;1753477;80;21053;-82
2021/05/15 03:00:33;;;;;;;4.55;3.20;;;;;;;9.39;83.51;95854.04;1754960;82;20990;-82
2021/05/15 03:02:59;;;;;;;3.37;2.67;;;;;;;9.40;83.53;95849.16;1752712;80;21150;-82
2021/05/15 03:05:27;;;;;;;4.00;2.72;;;;;;;9.43;83.46;95844.89;1754305;80;20981;-82
2021/05/15 03:07:52;;;;;;;4.10;3.58;;;;;;;9.44;83.41;95846.52;1754476;81;20986;-82
2021/05/15 03:10:23;;;;;;;5.80;3.72;;;;;;;9.49;83.05;95838.97;1740308;82;21014;-82
2021/05/15 03:12:48;;;;;;;3.85;3.50;;;;;;;9.53;83.08;95845.38;1725289;80;21009;-82
2021/05/15 03:15:14;;;;;;;4.70;2.85;;;;;;;9.55;83.01;95849.08;1752266;80;20982;-82
2021/05/15 03:17:40;;;;;;;3.27;2.77;;;;;;;9.51;83.09;95848.66;1738387;80;21033;-82
2021/05/15 03:20:08;;;;;;;4.97;3.40;;;;;;;9.48;83.07;95846.94;1746608;82;21319;-82
2021/05/15 03:22:35;;;;;;;3.33;2.70;;;;;;;9.48;82.86;95845.15;1725570;80;20978;-82
2021/05/15 03:25:00;;;;;;;6.12;2.80;;;;;;;9.51;82.87;95847.36;1725017;82;20946;-82
2021/05/15 03:27:26;;;;;;;6.37;3.10;;;;;;;9.53;83.02;95844.08;1729374;82;21004;-82
2021/05/15 03:29:52;;;;;;;4.92;2.90;;;;;;;9.55;83.07;95852.48;1741586;80;21002;-82
2021/05/15 03:32:18;;;;;;;5.12;2.75;;;;;;;9.57;83.08;95854.38;1741081;80;20981;-82
2021/05/15 03:34:43;;;;;;;6.30;2.90;;;;;;;9.55;83.01;95856.86;1728835;80;21303;-82
2021/05/15 03:37:09;;;;;;;3.65;2.67;;;;;;;9.50;82.98;95852.25;1716853;83;20951;-82
2021/05/15 03:39:35;;;;;;;4.50;2.60;;;;;;;9.46;82.89;95860.09;1741511;80;20930;-82
2021/05/15 03:42:01;;;;;;;7.53;3.02;;;;;;;9.45;82.96;95856.40;1733198;80;21227;-82
2021/05/15 03:44:26;;;;;;;6.17;3.12;;;;;;;9.46;82.95;95856.20;1730433;80;20966;-82
2021/05/15 03:46:53;;;;;;;7.00;3.02;;;;;;;9.43;82.95;95852.67;1740898;82;21041;-82
2021/05/15 03:49:19;;;;;;;2.92;2.70;;;;;;;9.39;83.04;95857.92;1743548;80;21291;-82
2021/05/15 03:51:45;;;;;;;11.00;3.00;;;;;;;9.36;83.12;95851.83;1727845;80;20997;-82
2021/05/15 03:54:10;;;;;;;4.87;2.42;;;;;;;9.33;83.23;95854.80;1729989;80;20981;-82
2021/05/15 03:56:36;;;;;;;5.17;2.40;;;;;;;9.34;83.21;95858.98;1752529;82;20959;-82
2021/05/15 03:59:03;;;;;;;3.77;2.30;;;;;;;9.39;83.35;95863.11;1753324;80;21002;-82
2021/05/15 04:01:29;;;;;;;4.95;2.95;;;;;;;9.45;83.45;95867.58;1734259;80;20919;-82
2021/05/15 04:03:55;;;;;;;3.45;3.00;;;;;;;9.49;83.21;95871.39;1747829;80;20974;-82
2021/05/15 04:06:20;;;;;;;5.78;2.92;;;;;;;9.48;83.11;95868.48;1748565;82;21046;-82
2021/05/15 04:08:46;;;;;;;4.15;2.62;;;;;;;9.48;83.20;95870.28;1732872;80;21018;-82
2021/05/15 04:11:12;;;;;;;3.85;2.20;;;;;;;9.46;83.09;95870.97;1700708;80;20999;-82
2021/05/15 04:13:57;;;;;;;4.47;2.65;;;;;;;9.43;83.14;95875.20;1731650;80;21038;-82
2021/05/15 04:18:49;;;;;;;4.95;3.27;;;;;;;9.45;83.43;95877.95;1754167;82;20958;-82
2021/05/15 04:21:15;;;;;;;3.87;2.70;;;;;;;9.48;83.27;95878.06;1738086;82;21331;-82
2021/05/15 04:23:41;;;;;;;3.37;2.72;;;;;;;9.50;83.54;95873.48;1725603;80;20978;-82
2021/05/15 04:26:06;;;;;;;5.08;3.17;;;;;;;9.52;83.66;95878.79;1725597;80;21013;-82
2021/05/15 04:28:32;;;;;;;2.60;2.15;;;;;;;9.53;83.78;95877.80;1718668;82;20998;-82
2021/05/15 04:30:58;;;;;;;3.25;2.08;;;;;;;9.54;83.85;95881.19;1734084;80;21406;-82
2021/05/15 04:33:24;;;;;;;3.60;2.10;;;;;;;9.58;83.91;95878.52;1753333;80;21018;-82
2021/05/15 04:35:53;;;;;;;4.75;2.80;;;;;;;9.64;83.91;95879.09;1732109;80;20978;-82
2021/05/15 04:38:19;;;;;;;4.50;2.92;;;;;;;9.68;83.91;95877.72;1725622;82;20974;-82
2021/05/15 04:40:45;;;;;;;3.50;2.67;;;;;;;9.73;84.01;95882.33;1725106;80;21338;-82
2021/05/15 04:43:13;;;;;;;3.45;2.75;;;;;;;9.75;84.07;95880.35;1726520;80;20938;-82
2021/05/15 04:45:39;;;;;;;3.22;2.33;;;;;;;9.78;84.17;95878.20;1724893;80;20946;-82
2021/05/15 04:48:05;;;;;;;4.65;2.45;;;;;;;9.83;84.21;95882.82;1741791;82;21009;-82
2021/05/15 04:50:31;;;;;;;4.42;2.67;;;;;;;9.86;84.04;95881.94;1732376;80;20921;-82
2021/05/15 04:52:57;;;;;;;5.70;3.40;;;;;;;9.91;84.03;95882.16;1725096;80;20930;-82
2021/05/15 04:55:23;;;;;;;5.37;3.35;;;;;;;9.98;84.10;95888.72;1725414;80;20950;-82
2021/05/15 04:57:48;;;;;;;5.72;2.85;;;;;;;9.97;84.23;95890.20;1750023;80;21089;-82
2021/05/15 05:00:15;;;;;;;3.08;2.70;;;;;;;9.95;84.45;95884.41;1740142;80;21349;-82
2021/05/15 05:02:41;;;;;;;5.65;2.90;;;;;;;9.99;84.61;95888.22;1746077;80;21062;-82
2021/05/15 05:05:09;;;;;;;4.40;3.80;;;;;;;10.04;84.67;95890.55;1745966;82;21291;-82
2021/05/15 05:07:34;;;;;;;8.35;4.45;;;;;;;10.11;83.97;95891.91;1725748;80;20990;-82
2021/05/15 05:10:00;;;;;;;9.90;5.25;;;;;;;10.19;83.86;95889.94;1735753;80;21026;-82
2021/05/15 05:12:26;;;;;;;5.50;4.70;;;;;;;10.28;83.32;95895.83;1735145;82;21018;-82
2021/05/15 05:14:52;;;;;;;5.78;4.78;;;;;;;10.33;83.85;95888.75;1725610;82;21003;-82
2021/05/15 05:17:18;;;;;;;4.87;4.37;;;;;;;10.38;83.68;95896.76;1732623;80;21034;-82
2021/05/15 05:19:44;;;;;;;4.33;3.92;;;;;;;10.46;83.73;95903.11;1735061;82;20977;-82
2021/05/15 05:22:10;;;;;;;7.08;5.03;;;;;;;10.54;83.46;95896.44;1746006;80;20981;-83
2021/05/15 05:24:35;;;;;;;6.10;4.37;;;;;;;10.61;83.29;95900.38;1725150;80;21045;-82
2021/05/15 05:27:02;;;;;;;5.33;4.78;;;;;;;10.68;82.77;95901.20;1726095;80;20938;-82
2021/05/15 05:29:28;;;;;;;6.40;4.70;;;;;;;10.74;82.77;95903.84;1728303;80;21026;-82
2021/05/15 05:31:54;;;;;;;7.53;4.67;;;;;;;10.79;82.83;95907.16;1739811;82;20970;-82
2021/05/15 05:34:20;;;;;;;5.37;3.72;;;;;;;10.83;82.69;95905.77;1753360;82;20914;-82
2021/05/15 05:36:46;;;;;;;3.80;3.50;;;;;;;10.91;82.71;95906.11;1727428;80;21299;-82
2021/05/15 05:39:17;;;;;;;5.35;3.87;;;;;;;10.99;81.78;95902.02;1725085;82;20966;-82
2021/05/15 05:41:44;;;;;;;5.80;4.58;;;;;;;11.05;81.71;95908.52;1724417;80;20968;-82
2021/05/15 05:44:09;;;;;;;4.83;4.25;;;;;;;11.15;81.82;95906.86;1725246;80;21002;-82
2021/05/15 05:46:35;;;;;;;4.78;4.37;;;;;;;11.24;81.12;95908.80;1742820;80;21002;-82
2021/05/15 05:49:02;;;;;;;4.70;4.30;;;;;;;11.28;81.51;95909.50;1732966;80;20998;-83
2021/05/15 05:51:27;;;;;;;5.72;3.80;;;;;;;11.32;80.13;95907.30;1752462;80;20938;-82
2021/05/15 05:53:53;;;;;;;4.97;4.47;;;;;;;11.40;80.30;95914.42;1734988;82;20973;-82
2021/05/15 05:56:19;;;;;;;6.75;3.50;;;;;;;11.47;80.36;95907.92;1725121;82;21061;-82
2021/05/15 05:58:46;;;;;;;4.45;3.65;;;;;;;11.54;80.19;95911.81;1725015;82;21046;-83
2021/05/15 06:01:16;;;;;;;4.17;3.77;;;;;;;11.63;79.95;95915.84;1726320;80;21002;-82
2021/05/15 06:03:42;;;;;;;4.45;3.90;;;;;;;11.71;79.69;95917.77;1743328;82;20943;-82
2021/05/15 06:06:08;;;;;;;5.30;3.87;;;;;;;11.80;79.84;95919.68;1725043;82;20990;-83
2021/05/15 06:08:34;;;;;;;5.78;3.00;;;;;;;11.84;79.66;95916.97;1753876;80;20966;-82
2021/05/15 06:11:00;;;;;;;4.15;3.22;;;;;;;11.95;78.80;95922.88;1732082;80;20962;-83
2021/05/15 06:13:26;;;;;;;3.83;3.45;;;;;;;12.07;78.28;95922.28;1725142;80;20915;-82
2021/05/15 06:15:51;;;;;;;4.65;4.03;;;;;;;12.14;78.57;95924.37;1725450;80;20950;-83
2021/05/15 06:18:17;;;;;;;5.15;3.62;;;;;;;12.22;78.31;95920.27;1725471;80;20970;-82
2021/05/15 06:20:43;;;;;;;4.47;3.27;;;;;;;12.27;78.35;95925.16;1725881;82;20987;-82
2021/05/15 06:23:09;;;;;;;5.33;3.10;;;;;;;12.36;78.08;95933.54;1743217;80;21256;-82
2021/05/15 06:25:35;;;;;;;3.05;2.70;;;;;;;12.40;76.26;95933.45;1727002;82;20950;-83
2021/05/15 06:28:01;;;;;;;3.77;3.08;;;;;;;12.51;76.58;95939.83;1727522;80;20946;-83
2021/05/15 06:30:26;;;;;;;2.70;2.33;;;;;;;12.61;76.38;95937.11;1725790;80;21013;-82
2021/05/15 06:32:53;;;;;;;2.98;2.70;;;;;;;12.70;76.51;95934.29;1726430;80;20978;-83
2021/05/15 06:35:19;;;;;;;3.92;3.12;;;;;;;12.76;75.89;95936.86;1740386;80;21006;-82
2021/05/15 06:37:44;;;;;;;3.37;2.90;;;;;;;12.82;75.75;95936.03;1733464;80;20981;-83
2021/05/15 06:40:10;;;;;;;5.45;3.40;;;;;;;12.86;75.04;95939.84;1755003;82;20990;-82
2021/05/15 06:42:36;;;;;;;2.65;2.45;;;;;;;12.90;75.13;95945.44;1706525;82;20938;-83
2021/05/15 06:45:05;;;;;;;4.58;3.15;;;;;;;12.96;74.39;95942.50;1748329;80;20962;-82
2021/05/15 06:47:31;;;;;;;4.65;3.12;;;;;;;13.07;74.64;95945.77;1728395;80;21298;-83
2021/05/15 06:49:57;;;;;;;3.83;3.20;;;;;;;13.18;74.77;95950.38;1725276;80;21017;-83
2021/05/15 06:52:23;;;;;;;3.77;3.33;;;;;;;13.26;73.83;95950.62;1725898;80;20922;-83
2021/05/15 06:54:48;;;;;;;3.67;3.17;;;;;;;13.30;73.20;95942.16;1735408;82;20931;-83
2021/05/15 06:57:14;;;;;;;4.28;3.72;;;;;;;13.38;73.77;95942.44;1751330;82;21327;-83
2021/05/15 06:59:41;;;;;;;3.52;3.22;;;;;;;13.44;73.36;95946.30;1732221;81;21337;-83
2021/05/15 07:02:07;;;;;;;6.33;3.60;;;;;;;13.50;72.94;95945.95;1735103;80;21291;-83
2021/05/15 07:04:32;;;;;;;3.22;2.95;;;;;;;13.57;72.60;95944.13;1753863;80;21022;-83
2021/05/15 07:06:58;;;;;;;4.87;3.00;;;;;;;13.60;71.97;95938.98;1733651;80;20957;-83
2021/05/15 07:09:24;;;;;;;3.30;2.72;;;;;;;13.61;72.14;95931.45;1732967;81;20925;-83
2021/05/15 07:11:50;;;;;;;3.42;3.10;;;;;;;13.73;72.90;95935.78;1735714;80;21235;-83
2021/05/15 07:14:17;;;;;;;2.80;2.27;;;;;;;13.85;72.51;95935.91;1750252;80;20986;-83
2021/05/15 07:16:42;;;;;;;3.15;2.67;;;;;;;13.87;71.21;95940.91;1736630;80;21251;-83
2021/05/15 07:19:08;;;;;;;3.75;3.00;;;;;;;13.85;70.82;95945.05;1750175;81;20952;-83
2021/05/15 07:21:34;;;;;;;3.33;2.22;;;;;;;13.85;70.83;95942.94;1732710;80;20969;-83
2021/05/15 07:23:59;;;;;;;3.10;2.85;;;;;;;13.88;70.55;95949.04;1753706;80;21310;-82
2021/05/15 07:26:25;;;;;;;3.80;2.22;;;;;;;13.85;69.60;95946.86;1746480;80;20958;-83
2021/05/15 07:28:52;;;;;;;2.77;2.27;;;;;;;13.89;70.65;95948.83;1740309;80;20942;-82
2021/05/15 07:31:18;;;;;;;2.95;2.35;;;;;;;13.99;69.68;95958.30;1734562;81;21652;-82
2021/05/15 07:33:43;;;;;;;4.58;2.85;;;;;;;14.07;70.09;95951.48;1732612;80;20938;-82
2021/05/15 07:36:09;;;;;;;3.17;2.77;;;;;;;14.13;69.77;95951.93;1753307;80;20954;-82
2021/05/15 07:38:36;;;;;;;3.45;3.15;;;;;;;14.18;69.73;95957.04;1733325;80;20989;-82
2021/05/15 07:41:03;;;;;;;3.65;3.15;;;;;;;14.26;69.83;95950.22;1733370;80;21394;-83
2021/05/15 07:43:29;;;;;;;3.40;3.10;;;;;;;14.38;70.58;95950.61;1732513;80;21028;-82
2021/05/15 07:45:56;;;;;;;3.52;2.72;;;;;;;14.52;70.73;95955.24;1733617;81;21014;-82
2021/05/15 07:48:29;;;;;;;5.12;3.50;;;;;;;14.67;69.76;95948.36;1751918;81;20927;-82
2021/05/15 07:50:57;;;;;;;3.70;3.40;;;;;;;14.80;70.18;95952.63;1733963;80;20997;-82
2021/05/15 07:53:23;;;;;;;4.42;2.67;;;;;;;14.72;69.84;95951.11;1735739;80;20958;-82
2021/05/15 07:55:50;;;;;;;4.03;2.87;;;;;;;14.68;67.61;95958.59;1758051;80;21314;-82
2021/05/15 07:58:17;;;;;;;2.87;2.67;;;;;;;14.56;69.31;95954.30;1731498;81;20974;-83
2021/05/15 08:00:43;;;;;;;4.25;3.75;;;;;;;14.48;68.42;95953.25;1732405;81;21006;-82
2021/05/15 08:03:08;;;;;;;4.97;3.17;;;;;;;14.60;68.62;95956.76;1712354;81;21042;-82
2021/05/15 08:05:34;;;;;;;2.87;2.35;;;;;;;14.75;69.33;95947.25;1725884;82;21026;-82
2021/05/15 08:08:02;;;;;;;3.27;2.98;;;;;;;14.77;67.81;95951.24;1713650;81;21267;-82
2021/05/15 08:10:31;;;;;;;3.20;2.90;;;;;;;14.88;67.74;95950.53;1727703;82;21038;-83
2021/05/15 08:12:58;;;;;;;4.90;2.58;;;;;;;15.03;67.84;95952.77;1717107;81;21283;-82
2021/05/15 08:15:24;;;;;;;3.05;2.60;;;;;;;15.16;66.84;95953.13;1711750;81;21022;-83
2021/05/15 08:17:51;;;;;;;2.72;2.52;;;;;;;15.24;67.29;95950.98;1711831;81;21102;-83
2021/05/15 08:20:16;;;;;;;3.00;2.75;;;;;;;15.42;66.76;95959.82;1715945;81;20991;-83
2021/05/15 08:22:42;;;;;;;3.55;3.10;;;;;;;15.52;66.90;95956.17;1730502;81;20923;-83
2021/05/15 08:25:10;;;;;;;2.52;2.33;;;;;;;15.54;66.39;95956.74;1711530;81;20982;-83
2021/05/15 08:27:38;;;;;;;3.55;2.35;;;;;;;15.39;66.15;95965.50;1711965;81;20966;-83
2021/05/15 08:30:05;;;;;;;2.90;2.47;;;;;;;15.28;65.86;95970.45;1711483;81;21042;-83
2021/05/15 08:32:33;;;;;;;3.85;2.58;;;;;;;15.18;65.54;95970.20;1732233;81;21229;-83
2021/05/15 08:34:59;;;;;;;4.12;2.20;;;;;;;15.35;65.41;95967.77;1711797;81;21027;-83
2021/05/15 08:37:24;;;;;;;2.62;2.42;;;;;;;15.53;65.35;95966.42;1712104;81;20978;-83
2021/05/15 08:39:50;;;;;;;3.92;3.12;;;;;;;15.69;65.38;95972.88;1713334;81;20979;-83
2021/05/15 08:42:18;;;;;;;3.52;3.22;;;;;;;15.90;65.24;95973.66;1725899;82;20931;-83
2021/05/15 08:44:48;;;;;;;15.45;11.25;;;;;;;16.14;64.50;95965.86;1716734;82;21003;-83
2021/05/15 08:47:16;;;;;;;9.25;7.92;;;;;;;16.37;64.01;95968.48;1723089;81;21002;-83
2021/05/15 08:49:46;;;;;;;4.20;3.80;;;;;;;16.60;64.42;95963.77;1735035;82;21007;-83
2021/05/15 08:52:13;;;;;;;4.72;2.70;;;;;;;16.78;63.46;95961.55;1734480;81;20947;-83
2021/05/15 08:54:39;;;;;;;6.80;6.20;;;;;;;16.89;63.22;95965.95;1738617;81;20999;-83
2021/05/15 08:57:08;;;;;;;4.00;3.60;;;;;;;16.76;63.09;95963.09;1736760;82;21049;-83
2021/05/15 08:59:34;;;;;;;5.28;4.80;;;;;;;16.59;63.17;95966.08;1721050;80;21109;-84
2021/05/15 09:02:00;;;;;;;3.95;2.62;;;;;;;16.44;63.02;95967.08;1728177;80;20962;-84
2021/05/15 09:04:26;;;;;;;3.60;3.02;;;;;;;16.20;62.71;95960.50;1744611;80;21001;-84
2021/05/15 09:06:52;;;;;;;2.98;2.40;;;;;;;16.11;63.92;95964.49;1754671;82;21033;-84
2021/05/15 09:09:18;;;;;;;2.98;2.20;;;;;;;16.26;63.78;95967.95;1730065;80;21046;-84
2021/05/15 09:11:44;;;;;;;2.50;2.00;;;;;;;16.31;63.49;95964.67;1725173;80;21112;-84
2021/05/15 09:14:17;;;;;;;2.60;2.15;;;;;;;16.58;63.61;95961.06;1725798;80;21065;-82
2021/05/15 09:16:51;;;;;;;2.58;1.80;;;;;;;16.76;63.18;95966.23;1746526;80;21890;-82
2021/05/15 09:19:25;;;;;;;2.60;2.40;;;;;;;16.76;61.95;95962.30;1739124;82;20958;-82
2021/05/15 09:22:04;;;;;;;2.37;2.17;;;;;;;16.61;62.02;95963.25;1731933;80;20976;-83
2021/05/15 09:24:33;;;;;;;1.92;1.72;;;;;;;16.46;61.35;95961.88;1746108;80;20911;-82
2021/05/15 09:27:01;;;;;;;4.75;1.98;;;;;;;16.37;61.53;95963.23;1732846;80;20966;-82
2021/05/15 09:29:27;;;;;;;3.10;1.92;;;;;;;16.44;62.16;95960.52;1754591;80;21046;-82
2021/05/15 09:31:53;;;;;;;2.45;1.90;;;;;;;16.40;62.06;95958.05;1752514;80;21105;-82
2021/05/15 09:34:21;;;;;;;2.33;1.90;;;;;;;16.37;59.87;95955.89;1754121;80;21298;-82
2021/05/15 09:36:47;;;;;;;2.40;2.02;;;;;;;16.29;61.51;95959.66;1753968;81;21033;-84
2021/05/15 09:39:18;;;;;;;3.42;1.98;;;;;;;16.27;61.76;95958.27;1725168;80;20939;-84
2021/05/15 09:41:58;;;;;;;2.97;2.40;;;;;;;16.21;61.30;95958.67;1725623;82;20976;-84
2021/05/15 09:44:26;;;;;;;2.47;1.98;;;;;;;16.20;61.92;95961.80;1724521;80;21326;-86
2021/05/15 09:46:53;;;;;;;3.67;2.52;;;;;;;16.23;62.43;95957.12;1725609;80;20978;-85
2021/05/15 09:49:25;;;;;;;3.90;3.00;;;;;;;16.27;62.33;95955.64;1726940;80;21086;-85
2021/05/15 09:52:00;;;;;;;4.20;1.90;;;;;;;16.44;61.37;95958.70;1749907;80;21220;-85
2021/05/15 09:54:32;;;;;;;2.42;1.87;;;;;;;16.55;60.47;95951.03;1740168;80;21023;-85
2021/05/15 09:57:01;;;;;;;;;;;;;;;16.58;60.48;95958.44;1729935;80;21343;-85
2021/05/15 09:59:32;;;;;;;2.12;1.90;;;;;;;16.73;60.03;95959.59;1749797;80;20193;-85
2021/05/15 10:02:00;;;;;;;2.33;1.80;;;;;;;16.73;60.02;95954.86;1720270;82;21342;-85
2021/05/15 10:04:27;;;;;;;2.45;1.77;;;;;;;16.72;59.69;95957.20;1729912;81;20969;-85
2021/05/15 10:06:52;;;;;;;1.75;1.45;;;;;;;16.86;60.16;95949.88;1703398;81;20939;-85
2021/05/15 10:09:34;;;;;;;2.42;1.87;;;;;;;16.95;59.85;95949.31;1711211;81;21326;-85
2021/05/15 10:12:02;;;;;;;2.45;1.77;;;;;;;17.00;58.64;95953.34;1705388;81;21021;-84
2021/05/15 10:14:28;;;;;;;2.52;2.00;;;;;;;17.15;58.50;95949.42;1711733;81;20985;-84
2021/05/15 10:16:55;;;;;;;3.17;2.42;;;;;;;17.43;58.15;95944.19;1713290;81;21010;-84
2021/05/15 10:19:21;;;;;;;2.85;1.92;;;;;;;17.58;58.63;95947.61;1704240;82;21229;-84
2021/05/15 10:21:47;;;;;;;3.85;2.00;;;;;;;17.60;58.42;95938.97;1700125;82;20966;-84
2021/05/15 10:24:23;;;;;;;3.33;2.40;;;;;;;17.54;58.64;95931.50;1708380;81;20942;-84
2021/05/15 10:27:05;;;;;;;4.05;2.80;;;;;;;17.56;57.30;95937.83;1683432;83;21295;-84
2021/05/15 10:29:53;;;;;;;2.80;2.52;;;;;;;17.51;58.14;95931.17;1711293;81;22027;-84
2021/05/15 10:32:25;;;;;;;2.42;1.82;;;;;;;17.55;58.65;95931.77;1703527;81;20951;-83
2021/05/15 10:35:07;;;;;;;3.35;1.75;;;;;;;17.56;57.95;95930.74;1708134;81;21050;-82
2021/05/15 10:37:42;;;;;;;1.70;1.60;;;;;;;17.53;57.28;95931.22;1731806;82;20974;-82
2021/05/15 10:40:17;;;;;;;1.75;1.60;;;;;;;17.51;56.54;95931.17;1717039;81;20975;-82
2021/05/15 10:42:42;;;;;;;4.92;2.37;;;;;;;17.44;56.98;95930.54;1725474;82;20995;-82
2021/05/15 10:45:09;;;;;;;2.50;2.30;;;;;;;17.41;57.26;95927.88;1711463;81;21006;-82
2021/05/15 10:47:42;;;;;;;2.83;2.50;;;;;;;17.34;57.52;95920.12;1711325;82;20955;-82
2021/05/15 10:50:21;;;;;;;2.55;2.35;;;;;;;17.37;58.14;95918.33;1711513;82;20946;-83
2021/05/15 10:52:49;;;;;;;2.47;2.27;;;;;;;17.43;57.59;95913.98;1723039;81;21304;-82
2021/05/15 10:55:31;;;;;;;3.10;2.12;;;;;;;17.52;58.51;95911.76;1736888;81;20955;-82
2021/05/15 10:58:10;;;;;;;;;;;;;;;17.50;57.74;95906.74;1680437;84;21341;-82
2021/05/15 11:00:36;;;;;;;2.80;2.20;;;;;;;17.44;57.15;95909.53;1662661;84;20156;-82
2021/05/15 11:03:02;;;;;;;3.02;2.55;;;;;;;17.39;56.80;95905.76;1668342;85;20994;-82
2021/05/15 11:05:30;;;;;;;2.45;2.17;;;;;;;17.43;57.84;95897.44;1654300;85;21121;-82
2021/05/15 11:07:55;;;;;;;2.40;1.92;;;;;;;17.51;58.15;95896.52;1661636;85;21030;-82
2021/05/15 11:10:21;;;;;;;2.33;2.12;;;;;;;17.59;59.84;95894.03;1654407;86;20994;-82
2021/05/15 11:12:53;;;;;;;6.33;2.40;;;;;;;17.65;58.99;95895.19;1668227;85;21061;-83
2021/05/15 11:15:24;;;;;;;2.40;2.20;;;;;;;17.72;57.38;95894.25;1648988;85;20986;-83
2021/05/15 11:18:02;;;;;;;2.33;2.12;;;;;;;17.92;57.74;95894.59;1666403;85;20990;-83
2021/05/15 11:20:27;;;;;;;2.30;2.10;;;;;;;17.91;56.99;95897.74;1648872;85;21036;-83
2021/05/15 11:22:54;;;;;;;4.12;1.98;;;;;;;17.89;57.23;95898.47;1642070;86;21041;-83
2021/05/15 11:25:27;;;;;;;6.33;3.52;;;;;;;17.90;57.36;95890.90;1668556;85;21363;-83
2021/05/15 11:28:01;;;;;;;5.00;3.35;;;;;;;17.93;57.89;95888.30;1650102;85;20959;-83
2021/05/15 11:30:46;;;;;;;2.70;2.20;;;;;;;17.91;57.95;95889.06;1651021;85;20987;-83
2021/05/15 11:33:13;;;;;;;3.67;2.55;;;;;;;17.78;56.16;95891.48;1651417;86;20962;-83
2021/05/15 11:35:49;;;;;;;7.62;6.78;;;;;;;17.63;56.88;95891.20;1668632;85;21005;-83
2021/05/15 11:38:21;;;;;;;8.05;6.42;;;;;;;17.54;57.34;95889.98;1708065;82;21335;-83